Flight Track Log - Related Links

Times and Time Zones

All times are in EDT time to prevent confusion due to time zone crossing. See the FLX146 flight status page for this flight to view local times or setup timezone preferences in your user account.

Time Position Orientation Groundspeed Altitude Reporting Facility
EDT Latitude Longitude Course Direction KTS MPH feet Rate Location/Type
Sat 02:11:36 AM 43.0833 -70.8500 180° South 111 128 700  Level KA90
Sat 02:11:54 AM 43.0667 -70.8500 180° South 113 130 700 385 Level KA90
Sat 02:12:54 AM 43.0500 -70.8833 236° Southwest 122 140 1,200 450 Climbing KA90
Sat 02:13:54 AM 43.0333 -70.9333 246° West 135 155 1,600 400 Climbing KA90
Sat 02:14:54 AM 43.0000 -70.9667 216° Southwest 141 162 2,000 443 Climbing KA90
Sat 02:15:56 AM 42.9833 -71.0167 246° West 145 167 2,500 500 Climbing KA90
Sat 02:16:54 AM 42.9500 -71.0500 216° Southwest 143 165 3,000 484 Climbing KA90
Sat 02:18:00 AM 42.9167 -71.1000 228° Southwest 147 169 3,500 425 Climbing KA90
Sat 02:19:01 AM 42.9000 -71.1500 246° West 152 175 3,900 450 Climbing KA90
Sat 02:20:00 AM 42.8667 -71.2000 228° Southwest 154 177 4,400 458 Climbing KA90
Sat 02:20:59 AM 42.8333 -71.2333 216° Southwest 158 182 4,800 454 Climbing KA90
Sat 02:21:59 AM 42.8167 -71.2833 246° West 161 185 5,300 450 Climbing KA90
Sat 02:22:59 AM 42.7833 -71.3333 228° Southwest 162 186 5,700 450 Climbing KA90
Sat 02:23:59 AM 42.7500 -71.3833 228° Southwest 161 185 6,200 400 Climbing KA90
Sat 02:24:59 AM 42.7333 -71.4333 233° Southwest 161 185 6,500 140 Climbing KA90
Sat 02:26:08 AM 42.6922 -71.4825 221° Southwest 175 201 6,500  Level Boston Center
Sat 02:27:08 AM 42.6572 -71.5394 230° Southwest 180 207 6,500  Level Boston Center
Sat 02:28:08 AM 42.6286 -71.5878 231° Southwest 186 214 6,500 -50 Level Boston Center
Sat 02:29:08 AM 42.5914 -71.6447 228° Southwest 186 214 6,400 -50 Descending Boston Center
Sat 02:30:08 AM 42.5625 -71.6931 231° Southwest 186 214 6,400 50 Level Boston Center
Sat 02:31:08 AM 42.5275 -71.7500 230° Southwest 186 214 6,500  Climbing Boston Center
Sat 02:31:24 AM 42.5172 -71.7697 235° Southwest 183 211 6,400 -100 Descending Boston Center
Sat 02:32:08 AM 42.4986 -71.7981 228° Southwest 186 214 6,400 91 Level Boston Center
Sat 02:32:30 AM 42.4800 -71.8292 231° Southwest 183 211 6,500 100 Climbing Boston Center
Sat 02:33:08 AM 42.4614 -71.8547 225° Southwest 186 214 6,500 -98 Level Boston Center
Sat 02:33:31 AM 42.4469 -71.8803 233° Southwest 182 209 6,400  Descending Boston Center
Sat 02:34:08 AM 42.4344 -71.9028 233° Southwest 186 214 6,500 100 Climbing Boston Center
Sat 02:34:31 AM 42.4139 -71.9339 228° Southwest 181 208 6,500  Level Boston Center
Sat 02:35:08 AM 42.3972 -71.9594 229° Southwest 186 214 6,500  Level Boston Center
Sat 02:35:32 AM 42.3808 -71.9847 229° Southwest 181 208 6,500  Level Boston Center
Sat 02:36:08 AM 42.3683 -72.0044 229° Southwest 186 214 6,500 -98 Level Boston Center
Sat 02:36:33 AM 42.3497 -72.0383 233° Southwest 180 207 6,400  Descending Boston Center
Sat 02:37:08 AM 42.3311 -72.0667 228° Southwest 192 221 6,500  Climbing Boston Center
Sat 02:37:33 AM 42.3164 -72.0892 228° Southwest 180 207 6,400 -100 Descending Boston Center
Sat 02:38:08 AM 42.3000 -72.1144 229° Southwest 187 215 6,400 98 Level Boston Center
Sat 02:38:34 AM 42.2833 -72.1428 232° Southwest 179 206 6,500  Climbing Boston Center
Sat 02:39:08 AM 42.2667 -72.1681 228° Southwest 187 215 6,400  Descending Boston Center
Sat 02:39:35 AM 42.2522 -72.1933 232° Southwest 179 206 6,500 100 Climbing Boston Center
Sat 02:40:08 AM 42.2356 -72.2186 228° Southwest 187 215 6,500  Level Boston Center
Sat 02:40:35 AM 42.2189 -72.2467 231° Southwest 181 208 6,500  Level Boston Center
Sat 02:41:08 AM 42.2022 -72.2719 228° Southwest 187 215 6,500  Level Boston Center
Sat 02:41:36 AM 42.1856 -72.3000 231° Southwest 181 208 6,500  Level Boston Center
Sat 02:42:08 AM 42.1711 -72.3225 229° Southwest 187 215 6,500  Level Boston Center
Sat 02:42:36 AM 42.1544 -72.3506 231° Southwest 180 207 6,500  Level Boston Center
Sat 02:43:08 AM 42.1378 -72.3756 228° Southwest 187 215 6,500  Level Boston Center
Sat 02:43:37 AM 42.1211 -72.4008 228° Southwest 181 208 6,500  Level Boston Center
Sat 02:44:08 AM 42.1067 -72.4289 235° Southwest 187 215 6,500  Level Boston Center
Sat 02:44:38 AM 42.0878 -72.4569 228° Southwest 183 211 6,500  Level Boston Center
Sat 02:45:08 AM 42.0731 -72.4792 228° Southwest 187 215 6,500  Level Boston Center
Sat 02:45:38 AM 42.0564 -72.5072 231° Southwest 179 206 6,500  Level Boston Center
Sat 02:46:08 AM 42.0439 -72.5267 229° Southwest 187 215 6,500  Level Boston Center
Sat 02:46:39 AM 42.0231 -72.5603 230° Southwest 182 209 6,500  Level Boston Center
Sat 02:47:39 AM 41.9897 -72.6133 230° Southwest 181 208 6,500  Level Boston Center
Sat 02:48:40 AM 41.9564 -72.6661 230° Southwest 180 207 6,500  Level Boston Center
Sat 02:49:41 AM 41.9269 -72.7136 230° Southwest 179 206 6,500  Level Boston Center
Sat 02:50:41 AM 41.8936 -72.7664 230° Southwest 181 208 6,500  Level Boston Center
Sat 02:51:42 AM 41.8578 -72.8192 228° Southwest 182 209 6,500  Level Boston Center
Sat 02:53:00 AM 41.8134 -72.8729 222° Southwest  Level FlightAware Approximate
Sat 02:53:37 AM 41.7950 -72.9192 222° Southwest 181 208 6,500  Level Boston Center
Sat 02:54:44 AM 41.7572 -72.9744 228° Southwest 182 209 6,500  Level Boston Center
Sat 02:55:44 AM 41.7236 -73.0242 228° Southwest 181 208 6,500  Level Boston Center
Sat 02:56:45 AM 41.6900 -73.0739 228° Southwest 181 208 6,500  Level Boston Center
Sat 02:57:45 AM 41.6564 -73.1236 228° Southwest 180 207 6,500 -149 Level Boston Center
Sat 02:58:46 AM 41.6206 -73.1789 229° Southwest 186 214 6,200 -295 Descending Boston Center
Sat 02:59:47 AM 41.5847 -73.2311 227° Southwest 191 220 5,900 -314 Descending Boston Center
Sat 03:01:19 AM 41.5333 -73.3000 225° Southwest 191 220 5,400 -316 Descending New York TRACON
Sat 03:02:19 AM 41.5000 -73.3667 236° Southwest 191 220 5,100 -350 Descending New York TRACON
Sat 03:03:19 AM 41.4667 -73.4167 228° Southwest 188 216 4,700 -300 Descending New York TRACON
Sat 03:04:19 AM 41.4333 -73.4667 228° Southwest 184 212 4,500 -250 Descending New York TRACON
Sat 03:06:00 AM 41.3613 -73.5099 204° Southwest  Level FlightAware Approximate
Sat 03:08:31 AM 41.3000 -73.6833 266° West 180 207 3,400  Level New York TRACON
Sat 03:09:31 AM 41.2667 -73.7333 228° Southwest 179 206 3,100 -300 Descending New York TRACON
Sat 03:10:31 AM 41.2333 -73.7833 228° Southwest 178 205 2,800 -300 Descending New York TRACON
Sat 03:11:31 AM 41.2000 -73.8333 228° Southwest 181 208 2,500 -250 Descending New York TRACON
Sat 03:12:31 AM 41.1667 -73.8833 228° Southwest 178 205 2,300 -158 Descending New York TRACON
Sat 03:13:00 AM 41.2505 -73.8733 266° West  Level FlightAware Approximate
Sat 03:13:25 AM 41.1333 -73.9167 217° Southwest 169 194 2,200  Level New York TRACON
Sat 03:14:25 AM 41.1000 -73.9667 229° Southwest 168 193 2,300 50 Climbing New York TRACON
Sat 03:15:25 AM 41.0833 -74.0167 246° West 172 198 2,300  Level New York TRACON
Sat 03:16:25 AM 41.0667 -74.0667 246° West 173 199 2,300  Level New York TRACON
Sat 03:17:25 AM 41.0333 -74.1167 229° Southwest 168 193 2,300 -149 Level New York TRACON
Sat 03:18:26 AM 41.0167 -74.1833 252° West 174 200 2,000 -149 Descending New York TRACON
Sat 03:19:26 AM 40.9833 -74.2333 229° Southwest 163 188 2,000  Level New York TRACON
Sat 03:21:00 AM 40.9486 -74.3240 243° Southwest  Level FlightAware Approximate
Sat 03:28:00 AM 40.7993 -74.4149 163° South  Level Estimated
Sat 03:29:00 AM 40.7993 -74.4149 163° South  Level Estimated
Sat 03:30:00 AM 40.7993 -74.4149 163° South  Level Estimated
Sat 03:31:00 AM 40.7993 -74.4149 163° South  Level Estimated
Sat 03:32:00 AM 40.7993 -74.4149 163° South  Level Estimated
Sat 03:33:00 AM 40.7993 -74.4149 163° South  Level Estimated
Sat 03:34:00 AM 40.7993 -74.4149 163° South  Level Estimated
Sat 03:35:00 AM 40.7993 -74.4149 163° South  Level Estimated
Sat 03:36:00 AM 40.7993 -74.4149 163° South  Level Estimated
Sat 03:37:00 AM 40.7993 -74.4149 163° South  Level Estimated
Sat 03:38:00 AM 40.7993 -74.4149 163° South  Level Estimated
Sat 03:39:00 AM 40.7993 -74.4149 163° South  Level Estimated
Sat 03:40:00 AM 40.7993 -74.4149 163° South  Level Estimated
Sat 03:41:00 AM 40.7993 -74.4149 163° South  Level Estimated
Sat 03:42:00 AM 40.7993 -74.4149 163° South  Level Estimated
Sat 03:43:00 AM 40.7993 -74.4149 163° South  Level Estimated
Sat 03:44:00 AM 40.7993 -74.4149 163° South  Level Estimated

Login

Don't have an account? Register now (free) for customized features, flight alerts, and more!